Página principal
METAR-TAF:

METAR-TAF

Aeroportos :

Pyongyang, Coreia do Norte

Aeroporto Internacional de Sunan

latitude: 39-02N, longitude: 125-47E, altura: 36 m

METAR: em falta

Hora: 08:16 (23:46 UTC)

Previsão

O boletim foi feito há 2 horas e 6 minutos, às 21:40 UTC
Previsão válida de 19 às 00 UTC a 19 às 24 UTC
Vento 8 kt de nor-nordeste
Visibilidade 10 km ou mais
sem nuvens abaixo de 1500 metros e sem cumulonimbus
Tornando-se
de 19 às 03 UTC a 19 às 05 UTC
Vento 10 kt de es-nordeste

TAF: ZKPY 182140Z 1900/1924 02004MPS CAVOK BECMG 1903/1905 06005MPS TX05/1906Z TNM07/1922Z

Observações e previsões do tempo de mais de 4000 aeroportos (mensagens METAR e TAF).

As estações disponíveis são os pontos amarelos e vermelhos sobre o mapa.

Mova o rato sobre o mapa para ver o nome da estação.

Depois clique no ponto para visualizar as observações e previsões meteorológicas.

Para alterar o mapa : clique nos botões verdes com uma cruz preta para aumentar o zoom; no botão verde com uma pitada de zoom; ou nas setas verdes para mapas adjacentes.


METAR-TAF: